sensor_id;sensor_type;location;lat;lon;timestamp;pressure;altitude;pressure_sealevel;temperature;humidity
34235;BME280;20500;49.856;20.290;2022-10-31T00:01:37;99294.90;;;7.75;77.22
34235;BME280;20500;49.856;20.290;2022-10-31T00:04:44;99290.89;;;7.73;77.26
34235;BME280;20500;49.856;20.290;2022-10-31T00:07:53;99292.77;;;7.71;77.26
34235;BME280;20500;49.856;20.290;2022-10-31T00:10:59;99296.73;;;7.68;77.10
34235;BME280;20500;49.856;20.290;2022-10-31T00:14:05;99299.40;;;7.66;77.24
34235;BME280;20500;49.856;20.290;2022-10-31T00:17:12;99302.50;;;7.66;77.23
34235;BME280;20500;49.856;20.290;2022-10-31T00:20:18;99305.05;;;7.63;77.20
34235;BME280;20500;49.856;20.290;2022-10-31T00:23:22;99301.77;;;7.57;77.32
34235;BME280;20500;49.856;20.290;2022-10-31T00:26:30;99299.29;;;7.53;77.24
34235;BME280;20500;49.856;20.290;2022-10-31T00:29:36;99300.14;;;7.50;77.25
34235;BME280;20500;49.856;20.290;2022-10-31T00:32:41;99300.30;;;7.50;77.46
34235;BME280;20500;49.856;20.290;2022-10-31T00:35:52;99302.57;;;7.49;77.20
34235;BME280;20500;49.856;20.290;2022-10-31T00:38:59;99303.31;;;7.46;77.30
34235;BME280;20500;49.856;20.290;2022-10-31T00:42:06;99302.69;;;7.40;77.24
34235;BME280;20500;49.856;20.290;2022-10-31T00:45:11;99302.94;;;7.33;77.26
34235;BME280;20500;49.856;20.290;2022-10-31T00:48:17;99300.74;;;7.30;77.33
34235;BME280;20500;49.856;20.290;2022-10-31T00:51:23;99300.70;;;7.25;77.32
34235;BME280;20500;49.856;20.290;2022-10-31T00:54:29;99297.61;;;7.20;77.35
34235;BME280;20500;49.856;20.290;2022-10-31T00:57:36;99300.11;;;7.17;77.44
34235;BME280;20500;49.856;20.290;2022-10-31T01:00:42;99298.72;;;7.16;77.57
34235;BME280;20500;49.856;20.290;2022-10-31T01:03:53;99300.14;;;7.15;77.55
34235;BME280;20500;49.856;20.290;2022-10-31T01:06:59;99298.89;;;7.13;77.44
34235;BME280;20500;49.856;20.290;2022-10-31T01:10:07;99294.02;;;7.09;77.41
34235;BME280;20500;49.856;20.290;2022-10-31T01:13:13;99296.61;;;7.07;77.40
34235;BME280;20500;49.856;20.290;2022-10-31T01:16:21;99297.08;;;7.04;77.44
34235;BME280;20500;49.856;20.290;2022-10-31T01:19:28;99300.11;;;6.99;77.42
34235;BME280;20500;49.856;20.290;2022-10-31T01:22:32;99300.95;;;6.92;77.40
34235;BME280;20500;49.856;20.290;2022-10-31T01:25:39;99298.27;;;6.87;77.39
34235;BME280;20500;49.856;20.290;2022-10-31T01:28:48;99299.27;;;6.82;77.42
34235;BME280;20500;49.856;20.290;2022-10-31T01:31:55;99294.27;;;6.78;77.44
34235;BME280;20500;49.856;20.290;2022-10-31T01:35:01;99293.19;;;6.74;77.46
34235;BME280;20500;49.856;20.290;2022-10-31T01:38:07;99286.79;;;6.71;77.60
34235;BME280;20500;49.856;20.290;2022-10-31T01:41:15;99281.84;;;6.70;77.65
34235;BME280;20500;49.856;20.290;2022-10-31T01:44:55;99280.41;;;6.72;77.73
34235;BME280;20500;49.856;20.290;2022-10-31T01:48:02;99281.27;;;6.76;77.61
34235;BME280;20500;49.856;20.290;2022-10-31T01:51:09;99279.30;;;6.74;77.51
34235;BME280;20500;49.856;20.290;2022-10-31T01:54:22;99278.67;;;6.71;77.65
34235;BME280;20500;49.856;20.290;2022-10-31T01:57:30;99275.24;;;6.70;77.54
34235;BME280;20500;49.856;20.290;2022-10-31T02:00:37;99277.02;;;6.65;77.53
34235;BME280;20500;49.856;20.290;2022-10-31T02:03:45;99278.88;;;6.62;77.56
34235;BME280;20500;49.856;20.290;2022-10-31T02:06:55;99280.61;;;6.59;77.69
34235;BME280;20500;49.856;20.290;2022-10-31T02:10:04;99274.89;;;6.55;77.61
34235;BME280;20500;49.856;20.290;2022-10-31T02:13:10;99276.02;;;6.51;77.38
34235;BME280;20500;49.856;20.290;2022-10-31T02:16:17;99279.55;;;6.48;77.66
34235;BME280;20500;49.856;20.290;2022-10-31T02:19:33;99280.31;;;6.46;77.68
34235;BME280;20500;49.856;20.290;2022-10-31T02:22:45;99277.98;;;6.44;77.59
34235;BME280;20500;49.856;20.290;2022-10-31T02:29:52;99282.21;;;6.36;77.57
34235;BME280;20500;49.856;20.290;2022-10-31T02:33:09;99290.69;;;6.33;77.65
34235;BME280;20500;49.856;20.290;2022-10-31T02:36:25;99290.02;;;6.29;77.58
34235;BME280;20500;49.856;20.290;2022-10-31T02:39:39;99294.65;;;6.24;77.69
34235;BME280;20500;49.856;20.290;2022-10-31T02:42:54;99296.63;;;6.23;77.79
34235;BME280;20500;49.856;20.290;2022-10-31T02:46:10;99293.23;;;6.22;77.94
34235;BME280;20500;49.856;20.290;2022-10-31T02:49:24;99293.30;;;6.22;77.87
34235;BME280;20500;49.856;20.290;2022-10-31T02:52:35;99296.86;;;6.22;77.98
34235;BME280;20500;49.856;20.290;2022-10-31T02:55:54;99296.23;;;6.23;77.90
34235;BME280;20500;49.856;20.290;2022-10-31T02:59:04;99298.33;;;6.22;77.84
34235;BME280;20500;49.856;20.290;2022-10-31T03:02:26;99303.51;;;6.21;77.91
34235;BME280;20500;49.856;20.290;2022-10-31T03:05:48;99302.33;;;6.18;77.95
34235;BME280;20500;49.856;20.290;2022-10-31T03:09:07;99310.14;;;6.15;77.89
34235;BME280;20500;49.856;20.290;2022-10-31T03:12:19;99309.27;;;6.17;78.00
34235;BME280;20500;49.856;20.290;2022-10-31T03:15:33;99313.16;;;6.20;78.03
34235;BME280;20500;49.856;20.290;2022-10-31T03:18:42;99314.39;;;6.20;78.10
34235;BME280;20500;49.856;20.290;2022-10-31T03:21:52;99317.05;;;6.19;77.93
34235;BME280;20500;49.856;20.290;2022-10-31T03:25:02;99319.54;;;6.17;77.84
34235;BME280;20500;49.856;20.290;2022-10-31T03:28:12;99320.13;;;6.13;77.90
34235;BME280;20500;49.856;20.290;2022-10-31T03:31:23;99321.42;;;6.07;77.98
34235;BME280;20500;49.856;20.290;2022-10-31T03:34:31;99319.65;;;6.03;78.01
34235;BME280;20500;49.856;20.290;2022-10-31T03:37:40;99319.92;;;6.04;78.17
34235;BME280;20500;49.856;20.290;2022-10-31T03:40:48;99320.33;;;6.07;78.28
34235;BME280;20500;49.856;20.290;2022-10-31T03:43:59;99321.90;;;6.09;78.36
34235;BME280;20500;49.856;20.290;2022-10-31T03:47:07;99323.64;;;6.12;78.08
34235;BME280;20500;49.856;20.290;2022-10-31T03:50:15;99326.09;;;6.11;78.16
34235;BME280;20500;49.856;20.290;2022-10-31T03:53:26;99329.70;;;6.10;78.31
34235;BME280;20500;49.856;20.290;2022-10-31T03:56:39;99330.44;;;6.12;78.44
34235;BME280;20500;49.856;20.290;2022-10-31T03:59:50;99331.76;;;6.14;78.32
34235;BME280;20500;49.856;20.290;2022-10-31T04:03:03;99327.89;;;6.15;78.28
34235;BME280;20500;49.856;20.290;2022-10-31T04:06:12;99328.52;;;6.15;78.38
34235;BME280;20500;49.856;20.290;2022-10-31T04:09:20;99328.08;;;6.16;78.43
34235;BME280;20500;49.856;20.290;2022-10-31T04:12:28;99329.20;;;6.16;78.41
34235;BME280;20500;49.856;20.290;2022-10-31T04:15:36;99326.70;;;6.16;78.23
34235;BME280;20500;49.856;20.290;2022-10-31T04:18:43;99324.40;;;6.15;78.34
34235;BME280;20500;49.856;20.290;2022-10-31T04:21:49;99326.63;;;6.15;78.21
34235;BME280;20500;49.856;20.290;2022-10-31T04:24:55;99325.47;;;6.13;78.37
34235;BME280;20500;49.856;20.290;2022-10-31T04:28:02;99320.94;;;6.10;78.22
34235;BME280;20500;49.856;20.290;2022-10-31T04:31:10;99321.48;;;6.06;78.27
34235;BME280;20500;49.856;20.290;2022-10-31T04:34:16;99319.38;;;6.02;78.27
34235;BME280;20500;49.856;20.290;2022-10-31T04:37:22;99319.87;;;5.98;78.39
34235;BME280;20500;49.856;20.290;2022-10-31T04:40:28;99319.28;;;5.95;78.25
34235;BME280;20500;49.856;20.290;2022-10-31T04:43:35;99323.27;;;5.93;78.41
34235;BME280;20500;49.856;20.290;2022-10-31T04:46:41;99326.44;;;5.90;78.44
34235;BME280;20500;49.856;20.290;2022-10-31T04:49:45;99327.09;;;5.87;78.65
34235;BME280;20500;49.856;20.290;2022-10-31T04:52:52;99333.27;;;5.84;78.81
34235;BME280;20500;49.856;20.290;2022-10-31T04:55:59;99330.50;;;5.83;78.88
34235;BME280;20500;49.856;20.290;2022-10-31T04:59:05;99335.52;;;5.81;78.68
34235;BME280;20500;49.856;20.290;2022-10-31T05:02:10;99336.71;;;5.80;78.76
34235;BME280;20500;49.856;20.290;2022-10-31T05:05:19;99331.92;;;5.79;78.86
34235;BME280;20500;49.856;20.290;2022-10-31T05:08:25;99336.04;;;5.78;78.89
34235;BME280;20500;49.856;20.290;2022-10-31T05:11:31;99334.56;;;5.74;78.81
34235;BME280;20500;49.856;20.290;2022-10-31T05:14:37;99338.41;;;5.72;78.76
34235;BME280;20500;49.856;20.290;2022-10-31T05:17:49;99338.90;;;5.68;78.68
34235;BME280;20500;49.856;20.290;2022-10-31T05:20:55;99342.54;;;5.66;78.76
34235;BME280;20500;49.856;20.290;2022-10-31T05:24:02;99345.98;;;5.64;78.76
34235;BME280;20500;49.856;20.290;2022-10-31T05:27:08;99345.70;;;5.63;78.82
34235;BME280;20500;49.856;20.290;2022-10-31T05:30:17;99351.69;;;5.60;78.75
34235;BME280;20500;49.856;20.290;2022-10-31T05:33:23;99352.98;;;5.58;78.97
34235;BME280;20500;49.856;20.290;2022-10-31T05:36:29;99352.33;;;5.56;78.83
34235;BME280;20500;49.856;20.290;2022-10-31T05:39:35;99355.85;;;5.55;78.80
34235;BME280;20500;49.856;20.290;2022-10-31T05:42:42;99361.02;;;5.53;78.91
34235;BME280;20500;49.856;20.290;2022-10-31T05:45:53;99361.54;;;5.52;78.86
34235;BME280;20500;49.856;20.290;2022-10-31T05:48:59;99369.18;;;5.49;79.02
34235;BME280;20500;49.856;20.290;2022-10-31T05:52:06;99367.92;;;5.49;79.04
34235;BME280;20500;49.856;20.290;2022-10-31T05:55:11;99365.09;;;5.49;79.00
34235;BME280;20500;49.856;20.290;2022-10-31T05:58:17;99368.63;;;5.49;79.15
34235;BME280;20500;49.856;20.290;2022-10-31T06:01:23;99369.81;;;5.50;79.31
34235;BME280;20500;49.856;20.290;2022-10-31T06:04:29;99370.77;;;5.51;79.22
34235;BME280;20500;49.856;20.290;2022-10-31T06:07:36;99374.33;;;5.52;79.35
34235;BME280;20500;49.856;20.290;2022-10-31T06:10:42;99376.73;;;5.53;79.21
34235;BME280;20500;49.856;20.290;2022-10-31T06:13:48;99380.49;;;5.55;79.27
34235;BME280;20500;49.856;20.290;2022-10-31T06:16:55;99384.11;;;5.56;79.20
34235;BME280;20500;49.856;20.290;2022-10-31T06:20:02;99384.30;;;5.57;79.29
34235;BME280;20500;49.856;20.290;2022-10-31T06:23:08;99387.61;;;5.58;79.30
34235;BME280;20500;49.856;20.290;2022-10-31T06:26:14;99390.11;;;5.60;79.50
34235;BME280;20500;49.856;20.290;2022-10-31T06:29:19;99395.67;;;5.64;79.59
34235;BME280;20500;49.856;20.290;2022-10-31T06:32:25;99398.27;;;5.66;79.43
34235;BME280;20500;49.856;20.290;2022-10-31T06:35:31;99400.65;;;5.67;79.52
34235;BME280;20500;49.856;20.290;2022-10-31T06:38:38;99400.47;;;5.68;79.53
34235;BME280;20500;49.856;20.290;2022-10-31T06:41:44;99403.61;;;5.72;79.68
34235;BME280;20500;49.856;20.290;2022-10-31T06:44:52;99403.95;;;5.76;79.66
34235;BME280;20500;49.856;20.290;2022-10-31T06:47:59;99405.16;;;5.80;79.76
34235;BME280;20500;49.856;20.290;2022-10-31T06:51:21;99407.63;;;5.84;79.75
34235;BME280;20500;49.856;20.290;2022-10-31T06:54:27;99409.73;;;5.89;79.81
34235;BME280;20500;49.856;20.290;2022-10-31T06:57:33;99415.04;;;5.94;79.87
34235;BME280;20500;49.856;20.290;2022-10-31T07:00:40;99415.67;;;5.99;80.00
34235;BME280;20500;49.856;20.290;2022-10-31T07:03:44;99416.02;;;6.05;80.07
34235;BME280;20500;49.856;20.290;2022-10-31T07:06:51;99414.05;;;6.10;80.29
34235;BME280;20500;49.856;20.290;2022-10-31T07:09:58;99414.33;;;6.17;80.46
34235;BME280;20500;49.856;20.290;2022-10-31T07:13:05;99412.98;;;6.23;80.59
34235;BME280;20500;49.856;20.290;2022-10-31T07:16:11;99415.83;;;6.31;80.63
34235;BME280;20500;49.856;20.290;2022-10-31T07:19:18;99417.77;;;6.40;80.75
34235;BME280;20500;49.856;20.290;2022-10-31T07:22:23;99417.06;;;6.47;80.89
34235;BME280;20500;49.856;20.290;2022-10-31T07:25:29;99421.64;;;6.53;80.95
34235;BME280;20500;49.856;20.290;2022-10-31T07:28:34;99419.49;;;6.61;80.97
34235;BME280;20500;49.856;20.290;2022-10-31T07:31:40;99419.29;;;6.68;81.23
34235;BME280;20500;49.856;20.290;2022-10-31T07:34:46;99420.20;;;6.76;81.36
34235;BME280;20500;49.856;20.290;2022-10-31T07:37:52;99421.55;;;6.84;81.33
34235;BME280;20500;49.856;20.290;2022-10-31T07:40:59;99420.56;;;6.94;81.64
34235;BME280;20500;49.856;20.290;2022-10-31T07:44:04;99419.46;;;7.03;81.62
34235;BME280;20500;49.856;20.290;2022-10-31T07:47:10;99418.70;;;7.13;81.80
34235;BME280;20500;49.856;20.290;2022-10-31T07:50:15;99417.86;;;7.23;81.83
34235;BME280;20500;49.856;20.290;2022-10-31T07:53:22;99417.87;;;7.34;82.16
34235;BME280;20500;49.856;20.290;2022-10-31T07:56:28;99411.40;;;7.43;82.19
34235;BME280;20500;49.856;20.290;2022-10-31T07:59:34;99413.83;;;7.53;82.27
34235;BME280;20500;49.856;20.290;2022-10-31T08:02:40;99410.46;;;7.65;82.44
34235;BME280;20500;49.856;20.290;2022-10-31T08:05:45;99406.66;;;7.75;82.58
34235;BME280;20500;49.856;20.290;2022-10-31T08:08:51;99411.54;;;7.86;82.64
34235;BME280;20500;49.856;20.290;2022-10-31T08:11:58;99413.32;;;7.97;82.75
34235;BME280;20500;49.856;20.290;2022-10-31T08:15:05;99415.20;;;8.09;82.90
34235;BME280;20500;49.856;20.290;2022-10-31T08:18:13;99413.56;;;8.19;82.96
34235;BME280;20500;49.856;20.290;2022-10-31T08:21:20;99415.73;;;8.30;82.97
34235;BME280;20500;49.856;20.290;2022-10-31T08:24:26;99417.91;;;8.41;83.17
34235;BME280;20500;49.856;20.290;2022-10-31T08:27:32;99418.41;;;8.51;83.33
34235;BME280;20500;49.856;20.290;2022-10-31T08:30:38;99416.52;;;8.64;83.46
34235;BME280;20500;49.856;20.290;2022-10-31T08:33:45;99415.77;;;8.76;83.46
34235;BME280;20500;49.856;20.290;2022-10-31T08:36:51;99413.70;;;8.91;83.59
34235;BME280;20500;49.856;20.290;2022-10-31T08:39:57;99411.25;;;9.05;83.89
34235;BME280;20500;49.856;20.290;2022-10-31T08:43:05;99411.91;;;9.18;83.83
34235;BME280;20500;49.856;20.290;2022-10-31T08:46:11;99410.79;;;9.30;83.92
34235;BME280;20500;49.856;20.290;2022-10-31T08:49:18;99410.85;;;9.41;84.04
34235;BME280;20500;49.856;20.290;2022-10-31T08:52:25;99412.38;;;9.53;84.11
34235;BME280;20500;49.856;20.290;2022-10-31T08:55:53;99415.45;;;9.67;84.25
34235;BME280;20500;49.856;20.290;2022-10-31T08:59:00;99414.79;;;9.81;84.26
34235;BME280;20500;49.856;20.290;2022-10-31T09:02:08;99411.42;;;9.95;84.32
34235;BME280;20500;49.856;20.290;2022-10-31T09:05:15;99408.27;;;10.09;84.43
34235;BME280;20500;49.856;20.290;2022-10-31T09:08:21;99409.48;;;10.24;84.70
34235;BME280;20500;49.856;20.290;2022-10-31T09:11:26;99410.68;;;10.41;84.77
34235;BME280;20500;49.856;20.290;2022-10-31T09:14:32;99418.56;;;10.58;84.77
34235;BME280;20500;49.856;20.290;2022-10-31T09:17:38;99413.36;;;10.73;84.82
34235;BME280;20500;49.856;20.290;2022-10-31T09:20:43;99415.27;;;10.90;84.86
34235;BME280;20500;49.856;20.290;2022-10-31T09:23:50;99412.09;;;11.05;84.95
34235;BME280;20500;49.856;20.290;2022-10-31T09:26:59;99411.95;;;11.20;84.89
34235;BME280;20500;49.856;20.290;2022-10-31T09:30:07;99405.02;;;11.36;84.89
34235;BME280;20500;49.856;20.290;2022-10-31T09:33:14;99402.34;;;11.51;84.72
34235;BME280;20500;49.856;20.290;2022-10-31T09:36:20;99403.61;;;11.65;84.82
34235;BME280;20500;49.856;20.290;2022-10-31T09:39:27;99404.80;;;11.83;84.90
34235;BME280;20500;49.856;20.290;2022-10-31T09:42:45;99403.61;;;12.02;84.76
34235;BME280;20500;49.856;20.290;2022-10-31T09:46:03;99403.95;;;12.20;84.69
34235;BME280;20500;49.856;20.290;2022-10-31T09:49:32;99403.55;;;12.45;84.83
34235;BME280;20500;49.856;20.290;2022-10-31T09:52:43;99402.77;;;12.68;84.62
34235;BME280;20500;49.856;20.290;2022-10-31T09:55:52;99394.77;;;12.84;84.65
34235;BME280;20500;49.856;20.290;2022-10-31T09:59:00;99398.50;;;13.02;84.59
34235;BME280;20500;49.856;20.290;2022-10-31T10:02:16;99394.63;;;13.26;84.48
34235;BME280;20500;49.856;20.290;2022-10-31T10:05:24;99396.19;;;13.53;84.03
34235;BME280;20500;49.856;20.290;2022-10-31T10:08:34;99399.20;;;13.75;83.98
34235;BME280;20500;49.856;20.290;2022-10-31T10:11:55;99400.45;;;14.00;83.70
34235;BME280;20500;49.856;20.290;2022-10-31T10:15:27;99403.80;;;14.31;83.37
34235;BME280;20500;49.856;20.290;2022-10-31T10:18:42;99403.45;;;14.49;83.03
34235;BME280;20500;49.856;20.290;2022-10-31T10:21:56;99403.77;;;14.68;82.89
34235;BME280;20500;49.856;20.290;2022-10-31T10:25:16;99399.70;;;14.83;82.83
34235;BME280;20500;49.856;20.290;2022-10-31T10:28:29;99400.86;;;14.94;82.65
34235;BME280;20500;49.856;20.290;2022-10-31T10:31:43;99401.89;;;15.07;82.52
34235;BME280;20500;49.856;20.290;2022-10-31T10:34:53;99402.48;;;15.24;82.42
34235;BME280;20500;49.856;20.290;2022-10-31T10:38:04;99395.46;;;15.41;82.06
34235;BME280;20500;49.856;20.290;2022-10-31T10:41:18;99395.55;;;15.53;81.63
34235;BME280;20500;49.856;20.290;2022-10-31T10:44:25;99398.31;;;15.65;81.44
34235;BME280;20500;49.856;20.290;2022-10-31T10:47:52;99395.40;;;15.80;81.30
34235;BME280;20500;49.856;20.290;2022-10-31T10:51:03;99395.38;;;15.95;81.00
34235;BME280;20500;49.856;20.290;2022-10-31T10:54:53;99391.52;;;16.10;80.70
34235;BME280;20500;49.856;20.290;2022-10-31T10:58:04;99393.17;;;16.28;80.57
34235;BME280;20500;49.856;20.290;2022-10-31T11:01:14;99393.44;;;16.44;80.20
34235;BME280;20500;49.856;20.290;2022-10-31T11:04:31;99390.61;;;16.59;79.93
34235;BME280;20500;49.856;20.290;2022-10-31T11:07:41;99387.96;;;16.77;79.81
34235;BME280;20500;49.856;20.290;2022-10-31T11:10:55;99384.46;;;16.91;79.49
34235;BME280;20500;49.856;20.290;2022-10-31T11:14:04;99383.77;;;17.08;79.16
34235;BME280;20500;49.856;20.290;2022-10-31T11:17:17;99380.55;;;17.24;79.09
34235;BME280;20500;49.856;20.290;2022-10-31T11:20:30;99376.63;;;17.39;78.47
34235;BME280;20500;49.856;20.290;2022-10-31T11:23:37;99372.73;;;17.54;78.23
34235;BME280;20500;49.856;20.290;2022-10-31T11:26:45;99373.98;;;17.69;77.93
34235;BME280;20500;49.856;20.290;2022-10-31T11:29:52;99376.46;;;17.82;77.81
34235;BME280;20500;49.856;20.290;2022-10-31T11:33:05;99371.80;;;17.95;77.40
34235;BME280;20500;49.856;20.290;2022-10-31T11:36:18;99371.42;;;18.07;77.24
34235;BME280;20500;49.856;20.290;2022-10-31T11:39:25;99373.80;;;18.17;76.92
34235;BME280;20500;49.856;20.290;2022-10-31T11:42:38;99372.41;;;18.28;76.59
34235;BME280;20500;49.856;20.290;2022-10-31T11:45:44;99373.00;;;18.42;76.48
34235;BME280;20500;49.856;20.290;2022-10-31T11:48:52;99372.07;;;18.57;76.27
34235;BME280;20500;49.856;20.290;2022-10-31T11:52:02;99373.39;;;18.67;75.89
34235;BME280;20500;49.856;20.290;2022-10-31T11:55:30;99370.52;;;18.78;75.60
34235;BME280;20500;49.856;20.290;2022-10-31T11:58:37;99364.88;;;18.90;75.22
34235;BME280;20500;49.856;20.290;2022-10-31T12:01:48;99364.75;;;18.98;75.02
34235;BME280;20500;49.856;20.290;2022-10-31T12:05:04;99361.85;;;19.07;74.67
34235;BME280;20500;49.856;20.290;2022-10-31T12:08:13;99357.10;;;19.16;74.59
34235;BME280;20500;49.856;20.290;2022-10-31T12:11:34;99353.92;;;19.26;74.31
34235;BME280;20500;49.856;20.290;2022-10-31T12:14:51;99353.35;;;19.37;73.89
34235;BME280;20500;49.856;20.290;2022-10-31T12:21:43;99346.14;;;19.53;73.30
34235;BME280;20500;49.856;20.290;2022-10-31T12:25:13;99350.67;;;19.60;73.16
34235;BME280;20500;49.856;20.290;2022-10-31T12:28:41;99349.16;;;19.65;72.50
34235;BME280;20500;49.856;20.290;2022-10-31T12:32:12;99351.11;;;19.70;72.19
34235;BME280;20500;49.856;20.290;2022-10-31T12:35:42;99350.14;;;19.75;72.08
34235;BME280;20500;49.856;20.290;2022-10-31T12:39:05;99348.71;;;19.80;71.77
34235;BME280;20500;49.856;20.290;2022-10-31T12:42:24;99347.09;;;19.87;71.43
34235;BME280;20500;49.856;20.290;2022-10-31T12:45:49;99347.65;;;19.91;71.17
34235;BME280;20500;49.856;20.290;2022-10-31T12:49:15;99346.81;;;19.96;70.83
34235;BME280;20500;49.856;20.290;2022-10-31T12:52:38;99344.03;;;20.00;70.66
34235;BME280;20500;49.856;20.290;2022-10-31T12:55:55;99343.56;;;20.03;70.42
34235;BME280;20500;49.856;20.290;2022-10-31T12:59:10;99340.45;;;20.04;70.09
34235;BME280;20500;49.856;20.290;2022-10-31T13:02:23;99339.85;;;20.07;70.11
34235;BME280;20500;49.856;20.290;2022-10-31T13:05:33;99337.91;;;20.11;70.10
34235;BME280;20500;49.856;20.290;2022-10-31T13:08:43;99335.08;;;20.12;69.76
34235;BME280;20500;49.856;20.290;2022-10-31T13:11:53;99328.91;;;20.14;69.49
34235;BME280;20500;49.856;20.290;2022-10-31T13:15:05;99328.66;;;20.14;69.19
34235;BME280;20500;49.856;20.290;2022-10-31T13:18:35;99330.77;;;20.13;68.86
34235;BME280;20500;49.856;20.290;2022-10-31T13:21:51;99327.04;;;20.09;68.80
34235;BME280;20500;49.856;20.290;2022-10-31T13:25:04;99329.87;;;20.05;68.68
34235;BME280;20500;49.856;20.290;2022-10-31T13:28:26;99328.30;;;20.00;68.53
34235;BME280;20500;49.856;20.290;2022-10-31T13:31:35;99323.36;;;19.95;68.34
34235;BME280;20500;49.856;20.290;2022-10-31T13:34:50;99323.69;;;19.90;68.16
34235;BME280;20500;49.856;20.290;2022-10-31T13:38:05;99323.24;;;19.86;68.00
34235;BME280;20500;49.856;20.290;2022-10-31T13:41:26;99324.98;;;19.81;67.93
34235;BME280;20500;49.856;20.290;2022-10-31T13:44:36;99327.00;;;19.74;67.85
34235;BME280;20500;49.856;20.290;2022-10-31T13:47:54;99327.69;;;19.68;67.52
34235;BME280;20500;49.856;20.290;2022-10-31T13:51:01;99324.70;;;19.62;67.33
34235;BME280;20500;49.856;20.290;2022-10-31T13:54:22;99321.50;;;19.57;67.21
34235;BME280;20500;49.856;20.290;2022-10-31T13:57:33;99321.70;;;19.50;67.10
34235;BME280;20500;49.856;20.290;2022-10-31T14:00:41;99320.80;;;19.45;67.16
34235;BME280;20500;49.856;20.290;2022-10-31T14:03:55;99319.89;;;19.40;66.96
34235;BME280;20500;49.856;20.290;2022-10-31T14:07:19;99317.75;;;19.35;66.60
34235;BME280;20500;49.856;20.290;2022-10-31T14:10:29;99314.05;;;19.30;66.48
34235;BME280;20500;49.856;20.290;2022-10-31T14:13:37;99314.02;;;19.26;66.39
34235;BME280;20500;49.856;20.290;2022-10-31T14:16:52;99312.73;;;19.22;66.25
34235;BME280;20500;49.856;20.290;2022-10-31T14:20:02;99305.45;;;19.18;65.98
34235;BME280;20500;49.856;20.290;2022-10-31T14:23:33;99310.30;;;19.14;66.00
34235;BME280;20500;49.856;20.290;2022-10-31T14:26:50;99314.55;;;19.08;65.97
34235;BME280;20500;49.856;20.290;2022-10-31T14:30:09;99309.00;;;19.00;65.88
34235;BME280;20500;49.856;20.290;2022-10-31T14:33:20;99308.21;;;18.90;65.71
34235;BME280;20500;49.856;20.290;2022-10-31T14:36:35;99305.29;;;18.79;65.71
34235;BME280;20500;49.856;20.290;2022-10-31T14:39:55;99301.92;;;18.68;65.60
34235;BME280;20500;49.856;20.290;2022-10-31T14:46:53;99305.63;;;18.41;65.77
34235;BME280;20500;49.856;20.290;2022-10-31T14:50:18;99306.11;;;18.26;65.78
34235;BME280;20500;49.856;20.290;2022-10-31T14:53:28;99308.55;;;18.10;65.62
34235;BME280;20500;49.856;20.290;2022-10-31T14:56:37;99306.67;;;17.95;65.76
34235;BME280;20500;49.856;20.290;2022-10-31T14:59:50;99307.06;;;17.82;65.82
34235;BME280;20500;49.856;20.290;2022-10-31T15:03:07;99306.73;;;17.67;65.83
34235;BME280;20500;49.856;20.290;2022-10-31T15:06:18;99307.41;;;17.52;66.04
34235;BME280;20500;49.856;20.290;2022-10-31T15:09:27;99309.40;;;17.38;65.89
34235;BME280;20500;49.856;20.290;2022-10-31T15:12:35;99311.94;;;17.24;66.13
34235;BME280;20500;49.856;20.290;2022-10-31T15:15:44;99310.30;;;17.11;66.24
34235;BME280;20500;49.856;20.290;2022-10-31T15:18:56;99312.13;;;17.00;66.40
34235;BME280;20500;49.856;20.290;2022-10-31T15:22:04;99311.59;;;16.86;66.59
34235;BME280;20500;49.856;20.290;2022-10-31T15:25:19;99310.65;;;16.71;66.73
34235;BME280;20500;49.856;20.290;2022-10-31T15:28:26;99308.81;;;16.57;66.83
34235;BME280;20500;49.856;20.290;2022-10-31T15:31:33;99313.06;;;16.41;66.73
34235;BME280;20500;49.856;20.290;2022-10-31T15:34:41;99316.09;;;16.26;66.96
34235;BME280;20500;49.856;20.290;2022-10-31T15:37:47;99316.98;;;16.13;66.98
34235;BME280;20500;49.856;20.290;2022-10-31T15:40:56;99317.88;;;16.00;67.19
34235;BME280;20500;49.856;20.290;2022-10-31T15:44:07;99316.15;;;15.86;67.26
34235;BME280;20500;49.856;20.290;2022-10-31T15:47:19;99319.04;;;15.70;67.19
34235;BME280;20500;49.856;20.290;2022-10-31T15:50:31;99319.73;;;15.52;67.40
34235;BME280;20500;49.856;20.290;2022-10-31T15:53:45;99323.38;;;15.39;67.60
34235;BME280;20500;49.856;20.290;2022-10-31T15:56:52;99324.10;;;15.27;67.76
34235;BME280;20500;49.856;20.290;2022-10-31T15:59:59;99323.96;;;15.13;67.79
34235;BME280;20500;49.856;20.290;2022-10-31T16:03:08;99330.45;;;15.00;67.92
34235;BME280;20500;49.856;20.290;2022-10-31T16:06:24;99334.80;;;14.91;68.10
34235;BME280;20500;49.856;20.290;2022-10-31T16:09:30;99336.52;;;14.80;68.00
34235;BME280;20500;49.856;20.290;2022-10-31T16:12:42;99338.30;;;14.68;68.14
34235;BME280;20500;49.856;20.290;2022-10-31T16:15:54;99338.73;;;14.54;68.20
34235;BME280;20500;49.856;20.290;2022-10-31T16:19:22;99342.11;;;14.40;68.45
34235;BME280;20500;49.856;20.290;2022-10-31T16:22:30;99345.46;;;14.27;68.44
34235;BME280;20500;49.856;20.290;2022-10-31T16:25:38;99348.14;;;14.15;68.61
34235;BME280;20500;49.856;20.290;2022-10-31T16:28:53;99348.29;;;14.03;68.64
34235;BME280;20500;49.856;20.290;2022-10-31T16:32:25;99349.13;;;13.91;68.87
34235;BME280;20500;49.856;20.290;2022-10-31T16:35:35;99347.11;;;13.78;68.83
34235;BME280;20500;49.856;20.290;2022-10-31T16:38:42;99348.98;;;13.67;69.01
34235;BME280;20500;49.856;20.290;2022-10-31T16:41:47;99352.50;;;13.57;69.17
34235;BME280;20500;49.856;20.290;2022-10-31T16:44:55;99349.45;;;13.48;69.14
34235;BME280;20500;49.856;20.290;2022-10-31T16:48:05;99346.98;;;13.37;69.28
34235;BME280;20500;49.856;20.290;2022-10-31T16:51:11;99349.70;;;13.23;69.20
34235;BME280;20500;49.856;20.290;2022-10-31T16:54:18;99349.66;;;13.10;69.21